sensor_id;sensor_type;location;lat;lon;timestamp;P1;durP1;ratioP1;P2;durP2;ratioP2
9264;SDS011;4669;49.594;10.958;2022-11-23T05:35:16;24.90;;;13.75;;
9264;SDS011;4669;49.594;10.958;2022-11-23T05:40:18;18.45;;;9.27;;
9264;SDS011;4669;49.594;10.958;2022-11-23T05:45:23;11.30;;;6.00;;
9264;SDS011;4669;49.594;10.958;2022-11-23T05:50:29;8.25;;;5.35;;
9264;SDS011;4669;49.594;10.958;2022-11-23T05:55:57;9.73;;;5.78;;
9264;SDS011;4669;49.594;10.958;2022-11-23T06:01:01;9.30;;;5.40;;
9264;SDS011;4669;49.594;10.958;2022-11-23T06:06:07;8.07;;;5.32;;
9264;SDS011;4669;49.594;10.958;2022-11-23T06:11:14;10.68;;;5.32;;
9264;SDS011;4669;49.594;10.958;2022-11-23T06:16:17;12.73;;;5.65;;
9264;SDS011;4669;49.594;10.958;2022-11-23T06:21:32;12.25;;;6.60;;
9264;SDS011;4669;49.594;10.958;2022-11-23T06:26:34;10.80;;;6.25;;
9264;SDS011;4669;49.594;10.958;2022-11-23T06:31:38;12.00;;;6.35;;
9264;SDS011;4669;49.594;10.958;2022-11-23T06:36:40;12.40;;;5.68;;
9264;SDS011;4669;49.594;10.958;2022-11-23T06:41:42;10.13;;;5.85;;
9264;SDS011;4669;49.594;10.958;2022-11-23T06:46:47;13.85;;;7.85;;
9264;SDS011;4669;49.594;10.958;2022-11-23T06:51:49;15.07;;;7.90;;
9264;SDS011;4669;49.594;10.958;2022-11-23T06:56:52;14.70;;;8.50;;
9264;SDS011;4669;49.594;10.958;2022-11-23T07:01:56;16.85;;;9.75;;
9264;SDS011;4669;49.594;10.958;2022-11-23T07:06:58;11.75;;;6.15;;
9264;SDS011;4669;49.594;10.958;2022-11-23T07:12:10;9.82;;;5.72;;
9264;SDS011;4669;49.594;10.958;2022-11-23T07:17:13;12.25;;;6.10;;
9264;SDS011;4669;49.594;10.958;2022-11-23T07:22:16;12.30;;;5.30;;
9264;SDS011;4669;49.594;10.958;2022-11-23T07:27:17;12.02;;;5.57;;
9264;SDS011;4669;49.594;10.958;2022-11-23T07:32:22;9.73;;;5.10;;
9264;SDS011;4669;49.594;10.958;2022-11-23T07:37:24;12.02;;;5.43;;
9264;SDS011;4669;49.594;10.958;2022-11-23T07:42:26;7.50;;;4.75;;
9264;SDS011;4669;49.594;10.958;2022-11-23T07:47:29;7.88;;;5.03;;
9264;SDS011;4669;49.594;10.958;2022-11-23T07:52:31;6.55;;;5.03;;
9264;SDS011;4669;49.594;10.958;2022-11-23T07:57:34;11.13;;;5.75;;
9264;SDS011;4669;49.594;10.958;2022-11-23T08:02:38;9.50;;;5.45;;
9264;SDS011;4669;49.594;10.958;2022-11-23T08:07:40;8.70;;;5.25;;
9264;SDS011;4669;49.594;10.958;2022-11-23T08:12:44;9.45;;;4.80;;
9264;SDS011;4669;49.594;10.958;2022-11-23T08:17:47;11.52;;;5.63;;
9264;SDS011;4669;49.594;10.958;2022-11-23T08:22:49;10.70;;;4.95;;
9264;SDS011;4669;49.594;10.958;2022-11-23T08:27:54;12.80;;;5.45;;
9264;SDS011;4669;49.594;10.958;2022-11-23T08:32:58;9.82;;;4.72;;
9264;SDS011;4669;49.594;10.958;2022-11-23T08:38:03;17.58;;;5.78;;
9264;SDS011;4669;49.594;10.958;2022-11-23T08:43:06;15.20;;;7.32;;
9264;SDS011;4669;49.594;10.958;2022-11-23T08:48:09;10.18;;;4.97;;
9264;SDS011;4669;49.594;10.958;2022-11-23T08:53:11;10.25;;;5.40;;
9264;SDS011;4669;49.594;10.958;2022-11-23T08:58:13;15.50;;;5.00;;
9264;SDS011;4669;49.594;10.958;2022-11-23T09:03:17;9.27;;;4.90;;
9264;SDS011;4669;49.594;10.958;2022-11-23T09:08:19;11.20;;;5.10;;
9264;SDS011;4669;49.594;10.958;2022-11-23T09:13:20;13.25;;;6.35;;
9264;SDS011;4669;49.594;10.958;2022-11-23T09:18:24;11.40;;;6.22;;
9264;SDS011;4669;49.594;10.958;2022-11-23T09:23:26;7.80;;;5.32;;
9264;SDS011;4669;49.594;10.958;2022-11-23T09:28:28;13.70;;;7.07;;
9264;SDS011;4669;49.594;10.958;2022-11-23T09:33:31;9.63;;;5.72;;
9264;SDS011;4669;49.594;10.958;2022-11-23T09:38:33;9.13;;;5.35;;
9264;SDS011;4669;49.594;10.958;2022-11-23T09:43:44;12.15;;;5.10;;
9264;SDS011;4669;49.594;10.958;2022-11-23T09:48:57;11.98;;;5.60;;
9264;SDS011;4669;49.594;10.958;2022-11-23T09:54:22;12.30;;;5.43;;
9264;SDS011;4669;49.594;10.958;2022-11-23T09:59:37;7.32;;;5.60;;
9264;SDS011;4669;49.594;10.958;2022-11-23T10:04:43;15.32;;;5.30;;
9264;SDS011;4669;49.594;10.958;2022-11-23T10:09:47;9.13;;;4.82;;
9264;SDS011;4669;49.594;10.958;2022-11-23T10:15:00;8.88;;;6.03;;
9264;SDS011;4669;49.594;10.958;2022-11-23T10:20:16;9.93;;;5.43;;
9264;SDS011;4669;49.594;10.958;2022-11-23T10:25:30;10.88;;;5.45;;
9264;SDS011;4669;49.594;10.958;2022-11-23T10:30:36;13.13;;;5.93;;
9264;SDS011;4669;49.594;10.958;2022-11-23T10:35:40;9.82;;;4.82;;
9264;SDS011;4669;49.594;10.958;2022-11-23T10:40:44;10.15;;;4.70;;
9264;SDS011;4669;49.594;10.958;2022-11-23T10:46:21;5.53;;;4.38;;
9264;SDS011;4669;49.594;10.958;2022-11-23T10:51:32;8.40;;;4.65;;
9264;SDS011;4669;49.594;10.958;2022-11-23T10:56:34;9.43;;;4.88;;
9264;SDS011;4669;49.594;10.958;2022-11-23T11:01:50;18.10;;;5.35;;
9264;SDS011;4669;49.594;10.958;2022-11-23T11:07:21;23.55;;;5.97;;
9264;SDS011;4669;49.594;10.958;2022-11-23T11:12:27;21.00;;;5.55;;
9264;SDS011;4669;49.594;10.958;2022-11-23T11:17:31;15.65;;;5.53;;
9264;SDS011;4669;49.594;10.958;2022-11-23T11:22:35;13.60;;;5.15;;
9264;SDS011;4669;49.594;10.958;2022-11-23T11:27:38;8.73;;;5.35;;
9264;SDS011;4669;49.594;10.958;2022-11-23T11:32:52;15.45;;;7.05;;
9264;SDS011;4669;49.594;10.958;2022-11-23T11:38:01;11.07;;;6.07;;
9264;SDS011;4669;49.594;10.958;2022-11-23T11:43:12;8.88;;;4.47;;
9264;SDS011;4669;49.594;10.958;2022-11-23T11:48:21;9.63;;;4.80;;
9264;SDS011;4669;49.594;10.958;2022-11-23T11:53:28;6.97;;;4.15;;
9264;SDS011;4669;49.594;10.958;2022-11-23T11:58:33;6.97;;;4.20;;
9264;SDS011;4669;49.594;10.958;2022-11-23T12:03:39;10.38;;;5.13;;
9264;SDS011;4669;49.594;10.958;2022-11-23T12:08:46;10.85;;;4.80;;
9264;SDS011;4669;49.594;10.958;2022-11-23T12:13:58;6.43;;;2.25;;
9264;SDS011;4669;49.594;10.958;2022-11-23T12:19:06;8.02;;;2.47;;
9264;SDS011;4669;49.594;10.958;2022-11-23T12:24:16;9.15;;;2.58;;
9264;SDS011;4669;49.594;10.958;2022-11-23T12:40:52;6.60;;;2.70;;
9264;SDS011;4669;49.594;10.958;2022-11-23T12:46:12;6.15;;;3.00;;
9264;SDS011;4669;49.594;10.958;2022-11-23T12:51:22;7.20;;;2.63;;
9264;SDS011;4669;49.594;10.958;2022-11-23T12:56:42;4.75;;;1.80;;
9264;SDS011;4669;49.594;10.958;2022-11-23T13:01:56;8.77;;;2.90;;
9264;SDS011;4669;49.594;10.958;2022-11-23T13:13:03;5.85;;;2.50;;
9264;SDS011;4669;49.594;10.958;2022-11-23T13:18:29;4.47;;;2.40;;
9264;SDS011;4669;49.594;10.958;2022-11-23T13:23:40;4.60;;;2.40;;
9264;SDS011;4669;49.594;10.958;2022-11-23T13:28:44;3.42;;;2.40;;
9264;SDS011;4669;49.594;10.958;2022-11-23T13:33:48;5.97;;;2.78;;
9264;SDS011;4669;49.594;10.958;2022-11-23T13:38:51;6.72;;;3.00;;
9264;SDS011;4669;49.594;10.958;2022-11-23T13:43:55;3.88;;;2.20;;
9264;SDS011;4669;49.594;10.958;2022-11-23T13:48:57;7.45;;;2.67;;
9264;SDS011;4669;49.594;10.958;2022-11-23T13:54:00;7.32;;;2.78;;
9264;SDS011;4669;49.594;10.958;2022-11-23T14:04:27;6.50;;;2.58;;
9264;SDS011;4669;49.594;10.958;2022-11-23T14:09:32;6.15;;;2.70;;
9264;SDS011;4669;49.594;10.958;2022-11-23T14:14:44;7.97;;;2.45;;
9264;SDS011;4669;49.594;10.958;2022-11-23T14:20:03;7.15;;;3.08;;
9264;SDS011;4669;49.594;10.958;2022-11-23T14:25:23;11.77;;;3.30;;
9264;SDS011;4669;49.594;10.958;2022-11-23T14:30:37;12.32;;;4.20;;
9264;SDS011;4669;49.594;10.958;2022-11-23T14:35:46;10.85;;;4.10;;
9264;SDS011;4669;49.594;10.958;2022-11-23T14:40:59;5.72;;;3.03;;
9264;SDS011;4669;49.594;10.958;2022-11-23T14:46:13;6.00;;;2.90;;
9264;SDS011;4669;49.594;10.958;2022-11-23T14:51:18;3.15;;;2.45;;
9264;SDS011;4669;49.594;10.958;2022-11-23T14:56:27;4.43;;;2.45;;
9264;SDS011;4669;49.594;10.958;2022-11-23T15:01:34;5.97;;;2.63;;
9264;SDS011;4669;49.594;10.958;2022-11-23T15:06:38;5.13;;;2.53;;
9264;SDS011;4669;49.594;10.958;2022-11-23T15:11:47;5.53;;;2.80;;
9264;SDS011;4669;49.594;10.958;2022-11-23T15:16:50;9.63;;;4.70;;
9264;SDS011;4669;49.594;10.958;2022-11-23T15:21:52;17.08;;;8.57;;
9264;SDS011;4669;49.594;10.958;2022-11-23T15:26:55;15.00;;;7.35;;
9264;SDS011;4669;49.594;10.958;2022-11-23T15:32:19;14.00;;;8.15;;
9264;SDS011;4669;49.594;10.958;2022-11-23T15:37:23;15.57;;;9.75;;
9264;SDS011;4669;49.594;10.958;2022-11-23T15:42:26;11.95;;;5.78;;
9264;SDS011;4669;49.594;10.958;2022-11-23T15:47:30;10.18;;;5.20;;
9264;SDS011;4669;49.594;10.958;2022-11-23T15:52:32;10.98;;;6.43;;
9264;SDS011;4669;49.594;10.958;2022-11-23T15:57:36;9.93;;;6.03;;
9264;SDS011;4669;49.594;10.958;2022-11-23T16:02:41;9.77;;;6.03;;
9264;SDS011;4669;49.594;10.958;2022-11-23T16:07:50;10.18;;;6.22;;
9264;SDS011;4669;49.594;10.958;2022-11-23T16:12:54;11.32;;;6.45;;
9264;SDS011;4669;49.594;10.958;2022-11-23T16:17:59;13.02;;;6.57;;
9264;SDS011;4669;49.594;10.958;2022-11-23T16:23:01;6.88;;;5.43;;
9264;SDS011;4669;49.594;10.958;2022-11-23T16:28:04;8.98;;;5.78;;
9264;SDS011;4669;49.594;10.958;2022-11-23T16:33:17;9.77;;;6.25;;
9264;SDS011;4669;49.594;10.958;2022-11-23T16:38:20;7.57;;;5.28;;
9264;SDS011;4669;49.594;10.958;2022-11-23T16:43:22;10.23;;;5.70;;
9264;SDS011;4669;49.594;10.958;2022-11-23T16:53:43;6.75;;;5.25;;
9264;SDS011;4669;49.594;10.958;2022-11-23T16:58:46;8.10;;;6.38;;
9264;SDS011;4669;49.594;10.958;2022-11-23T17:03:50;11.82;;;9.73;;
9264;SDS011;4669;49.594;10.958;2022-11-23T17:08:52;10.35;;;7.40;;
9264;SDS011;4669;49.594;10.958;2022-11-23T17:13:54;9.60;;;7.72;;
9264;SDS011;4669;49.594;10.958;2022-11-23T17:18:58;15.02;;;9.23;;
9264;SDS011;4669;49.594;10.958;2022-11-23T17:24:00;14.60;;;9.73;;
9264;SDS011;4669;49.594;10.958;2022-11-23T17:29:04;13.32;;;10.60;;
9264;SDS011;4669;49.594;10.958;2022-11-23T17:34:08;21.63;;;16.13;;
9264;SDS011;4669;49.594;10.958;2022-11-23T17:39:11;18.60;;;13.30;;
9264;SDS011;4669;49.594;10.958;2022-11-23T17:44:18;14.57;;;10.82;;
9264;SDS011;4669;49.594;10.958;2022-11-23T17:49:21;13.85;;;10.90;;
9264;SDS011;4669;49.594;10.958;2022-11-23T17:54:27;20.33;;;12.45;;
9264;SDS011;4669;49.594;10.958;2022-11-23T17:59:29;13.95;;;11.68;;
9264;SDS011;4669;49.594;10.958;2022-11-23T18:04:32;13.55;;;10.88;;
9264;SDS011;4669;49.594;10.958;2022-11-23T18:09:34;18.70;;;12.80;;
9264;SDS011;4669;49.594;10.958;2022-11-23T18:14:36;14.73;;;10.90;;
9264;SDS011;4669;49.594;10.958;2022-11-23T18:19:40;13.65;;;10.70;;
9264;SDS011;4669;49.594;10.958;2022-11-23T18:24:42;13.27;;;11.02;;
9264;SDS011;4669;49.594;10.958;2022-11-23T18:29:44;13.68;;;11.45;;
9264;SDS011;4669;49.594;10.958;2022-11-23T18:34:47;17.27;;;11.68;;
9264;SDS011;4669;49.594;10.958;2022-11-23T18:39:49;19.85;;;13.52;;
9264;SDS011;4669;49.594;10.958;2022-11-23T18:44:51;17.75;;;11.35;;
9264;SDS011;4669;49.594;10.958;2022-11-23T18:49:54;13.13;;;9.55;;
9264;SDS011;4669;49.594;10.958;2022-11-23T18:54:56;12.55;;;10.07;;
9264;SDS011;4669;49.594;10.958;2022-11-23T18:59:59;16.75;;;10.57;;
9264;SDS011;4669;49.594;10.958;2022-11-23T19:05:03;17.88;;;12.00;;
9264;SDS011;4669;49.594;10.958;2022-11-23T19:10:05;17.48;;;11.90;;
9264;SDS011;4669;49.594;10.958;2022-11-23T19:15:08;14.10;;;12.60;;
9264;SDS011;4669;49.594;10.958;2022-11-23T19:20:12;15.40;;;12.73;;
9264;SDS011;4669;49.594;10.958;2022-11-23T19:25:14;17.02;;;13.60;;
9264;SDS011;4669;49.594;10.958;2022-11-23T19:30:17;19.52;;;14.27;;
9264;SDS011;4669;49.594;10.958;2022-11-23T19:35:20;25.50;;;16.92;;
9264;SDS011;4669;49.594;10.958;2022-11-23T19:40:22;22.50;;;16.88;;
9264;SDS011;4669;49.594;10.958;2022-11-23T19:45:24;18.17;;;15.45;;
9264;SDS011;4669;49.594;10.958;2022-11-23T19:50:28;17.75;;;15.18;;
9264;SDS011;4669;49.594;10.958;2022-11-23T19:55:29;23.80;;;17.42;;
9264;SDS011;4669;49.594;10.958;2022-11-23T20:00:31;30.42;;;21.50;;
9264;SDS011;4669;49.594;10.958;2022-11-23T20:05:37;35.78;;;26.23;;
9264;SDS011;4669;49.594;10.958;2022-11-23T20:10:39;32.63;;;22.90;;
9264;SDS011;4669;49.594;10.958;2022-11-23T20:15:41;22.17;;;17.02;;
9264;SDS011;4669;49.594;10.958;2022-11-23T20:20:45;19.50;;;15.88;;
9264;SDS011;4669;49.594;10.958;2022-11-23T20:25:48;19.80;;;16.00;;
9264;SDS011;4669;49.594;10.958;2022-11-23T20:30:50;19.30;;;15.60;;
9264;SDS011;4669;49.594;10.958;2022-11-23T20:35:53;20.65;;;16.63;;
9264;SDS011;4669;49.594;10.958;2022-11-23T20:41:10;19.80;;;16.88;;
9264;SDS011;4669;49.594;10.958;2022-11-23T20:46:13;20.17;;;16.30;;
9264;SDS011;4669;49.594;10.958;2022-11-23T20:51:17;18.52;;;15.77;;
9264;SDS011;4669;49.594;10.958;2022-11-23T20:56:19;18.83;;;16.45;;
9264;SDS011;4669;49.594;10.958;2022-11-23T21:01:22;23.10;;;17.55;;
9264;SDS011;4669;49.594;10.958;2022-11-23T21:06:26;22.38;;;17.35;;
9264;SDS011;4669;49.594;10.958;2022-11-23T21:11:29;21.10;;;17.67;;
9264;SDS011;4669;49.594;10.958;2022-11-23T21:16:48;20.80;;;18.60;;
9264;SDS011;4669;49.594;10.958;2022-11-23T21:21:56;21.80;;;19.27;;
9264;SDS011;4669;49.594;10.958;2022-11-23T21:26:58;21.65;;;19.05;;
9264;SDS011;4669;49.594;10.958;2022-11-23T21:32:00;21.48;;;19.13;;
9264;SDS011;4669;49.594;10.958;2022-11-23T21:37:04;24.58;;;20.17;;
9264;SDS011;4669;49.594;10.958;2022-11-23T21:42:06;23.50;;;20.17;;
9264;SDS011;4669;49.594;10.958;2022-11-23T21:47:08;22.35;;;19.98;;
9264;SDS011;4669;49.594;10.958;2022-11-23T21:52:11;27.77;;;20.75;;
9264;SDS011;4669;49.594;10.958;2022-11-23T21:57:13;24.90;;;21.58;;
9264;SDS011;4669;49.594;10.958;2022-11-23T22:02:15;24.10;;;20.20;;
9264;SDS011;4669;49.594;10.958;2022-11-23T22:07:18;24.70;;;20.67;;
9264;SDS011;4669;49.594;10.958;2022-11-23T22:12:20;25.13;;;20.77;;
9264;SDS011;4669;49.594;10.958;2022-11-23T22:17:22;22.92;;;20.10;;
9264;SDS011;4669;49.594;10.958;2022-11-23T22:22:25;28.20;;;23.20;;
9264;SDS011;4669;49.594;10.958;2022-11-23T22:27:27;22.88;;;19.65;;
9264;SDS011;4669;49.594;10.958;2022-11-23T22:32:30;28.73;;;22.52;;
9264;SDS011;4669;49.594;10.958;2022-11-23T22:37:33;22.52;;;18.63;;
9264;SDS011;4669;49.594;10.958;2022-11-23T22:42:35;19.85;;;17.05;;
9264;SDS011;4669;49.594;10.958;2022-11-23T22:47:37;21.60;;;17.48;;
9264;SDS011;4669;49.594;10.958;2022-11-23T22:52:40;18.98;;;16.95;;
9264;SDS011;4669;49.594;10.958;2022-11-23T22:57:42;19.85;;;16.73;;
